Time;durP1;ratioP1;P1;durP2;ratioP2;P2;SDS_P1;SDS_P2;PMS_P1;PMS_P2;Temp;Humidity;BMP_temperature;BMP_pressure;BME280_temperature;BME280_humidity;BME280_pressure;Samples;Min_cycle;Max_cycle;Signal;HPM_P1;HPM_P2
2023/11/05 00:00:51;;;;;;;3.20;1.70;;;;;;;6.81;100.00;96997.31;7370244;19;20419;-37
2023/11/05 00:03:18;;;;;;;3.77;1.73;;;;;;;6.83;100.00;96995.59;7393363;19;20951;-39
2023/11/05 00:05:48;;;;;;;3.90;1.77;;;;;;;6.84;100.00;96997.31;7369768;19;20888;-38
2023/11/05 00:08:17;;;;;;;2.97;1.63;;;;;;;6.80;100.00;96994.75;7390632;19;20422;-39
2023/11/05 00:10:47;;;;;;;2.40;1.30;;;;;;;6.81;100.00;96991.34;7367372;19;20428;-38
2023/11/05 00:13:16;;;;;;;4.13;1.97;;;;;;;6.82;100.00;96986.22;7390979;19;20408;-38
2023/11/05 00:15:53;;;;;;;4.23;1.70;;;;;;;6.84;100.00;96997.31;7369854;19;20479;-37
2023/11/05 00:18:24;;;;;;;4.60;1.40;;;;;;;6.68;100.00;96995.66;7392170;19;20766;-38
2023/11/05 00:20:54;;;;;;;2.50;1.40;;;;;;;6.67;100.00;96988.84;7368283;19;20581;-38
2023/11/05 00:23:23;;;;;;;2.57;1.53;;;;;;;6.69;100.00;96987.09;7389911;19;20408;-38
2023/11/05 00:25:53;;;;;;;2.80;1.40;;;;;;;6.70;100.00;96986.25;7367391;19;20427;-37
2023/11/05 00:28:23;;;;;;;4.40;1.53;;;;;;;6.73;100.00;96986.25;7389908;19;20479;-37
2023/11/05 00:30:56;;;;;;;2.33;1.37;;;;;;;6.68;100.00;96978.59;7369914;19;20466;-37
2023/11/05 00:33:25;;;;;;;3.13;1.50;;;;;;;6.62;100.00;96982.00;7391206;19;20420;-38
2023/11/05 00:35:55;;;;;;;6.03;1.77;;;;;;;6.61;100.00;96979.44;7367510;19;20435;-37
2023/11/05 00:38:25;;;;;;;3.20;1.70;;;;;;;6.69;100.00;96971.75;7390691;19;20406;-38
2023/11/05 00:40:54;;;;;;;4.17;1.83;;;;;;;6.69;100.00;96971.75;7368443;19;20419;-38
2023/11/05 00:43:24;;;;;;;5.57;1.60;;;;;;;6.67;100.00;96964.06;7393637;19;20422;-40
2023/11/05 00:45:56;;;;;;;2.97;1.80;;;;;;;6.69;100.00;96971.75;7375946;19;20434;-37
2023/11/05 00:48:25;;;;;;;2.50;1.27;;;;;;;6.63;100.00;96972.63;7397064;19;20407;-38
2023/11/05 00:50:55;;;;;;;2.70;1.30;;;;;;;6.53;100.00;96960.69;7374385;19;20514;-38
2023/11/05 00:53:25;;;;;;;2.70;1.47;;;;;;;6.55;100.00;96959.84;7396118;19;20407;-38
2023/11/05 00:55:55;;;;;;;10.20;1.40;;;;;;;6.56;100.00;96971.78;7374603;19;20415;-39
2023/11/05 00:58:24;;;;;;;4.27;1.30;;;;;;;6.54;100.00;96968.38;7395924;19;20415;-38
2023/11/05 01:00:57;;;;;;;2.30;1.30;;;;;;;6.46;100.00;96976.06;7375945;19;20451;-38
2023/11/05 01:03:26;;;;;;;3.60;1.60;;;;;;;6.48;100.00;96981.19;7397342;19;20423;-39
2023/11/05 01:05:56;;;;;;;6.00;1.53;;;;;;;6.54;100.00;97059.72;7374919;19;20418;-38
2023/11/05 01:08:25;;;;;;;3.53;1.50;;;;;;;6.55;100.00;97198.03;7396246;19;20423;-41
2023/11/05 01:10:55;;;;;;;3.30;1.63;;;;;;;6.47;100.00;97263.75;7373823;19;20427;-38
2023/11/05 01:13:25;;;;;;;3.33;2.00;;;;;;;6.49;100.00;97303.03;7397916;19;20471;-38
2023/11/05 01:15:57;;;;;;;4.83;1.30;;;;;;;6.42;100.00;97352.53;7375570;19;20475;-38
2023/11/05 01:18:26;;;;;;;4.87;1.80;;;;;;;6.43;100.00;97387.53;7396392;19;20387;-38
2023/11/05 01:20:56;;;;;;;4.00;1.83;;;;;;;6.44;100.00;97410.59;7375253;19;20987;-40
2023/11/05 01:23:26;;;;;;;3.10;1.60;;;;;;;6.45;100.00;97437.91;7397618;19;20428;-38
2023/11/05 01:25:55;;;;;;;7.97;1.63;;;;;;;6.48;100.00;97460.13;7375051;19;20807;-38
2023/11/05 01:28:25;;;;;;;8.93;1.70;;;;;;;6.42;100.00;97488.25;7395583;19;20403;-38
2023/11/05 01:30:57;;;;;;;3.13;1.47;;;;;;;6.40;100.00;97495.09;7374861;19;20415;-38
2023/11/05 01:33:27;;;;;;;3.90;2.00;;;;;;;6.43;100.00;97508.75;7395317;19;20416;-40
2023/11/05 01:35:56;;;;;;;4.20;1.60;;;;;;;6.44;100.00;97509.59;7373931;19;20443;-38
2023/11/05 01:38:26;;;;;;;2.80;1.87;;;;;;;6.42;100.00;97526.66;7401110;19;20459;-37
2023/11/05 01:40:55;;;;;;;2.60;1.30;;;;;;;6.45;100.00;97544.59;7381008;19;20454;-40
2023/11/05 01:43:25;;;;;;;3.47;1.50;;;;;;;6.45;100.00;97536.91;7402015;19;20399;-38
2023/11/05 01:45:57;;;;;;;4.40;1.47;;;;;;;6.45;100.00;97552.28;7381057;19;20423;-38
2023/11/05 01:48:29;;;;;;;3.77;1.80;;;;;;;6.53;100.00;97545.53;7401368;19;20810;-38
2023/11/05 01:50:59;;;;;;;3.70;1.53;;;;;;;6.48;100.00;97542.06;7379901;19;20438;-38
2023/11/05 01:53:29;;;;;;;3.20;1.40;;;;;;;6.46;100.00;97549.75;7401757;19;20399;-38
2023/11/05 01:55:59;;;;;;;2.90;1.80;;;;;;;6.51;100.00;97560.00;7381402;19;20423;-39
2023/11/05 01:58:28;;;;;;;5.30;1.47;;;;;;;6.44;100.00;97571.06;7398193;19;20392;-39
2023/11/05 02:01:01;;;;;;;3.83;1.37;;;;;;;6.41;100.00;97566.78;7375531;19;21042;-40
2023/11/05 02:03:31;;;;;;;10.93;2.90;;;;;;;6.48;100.00;97572.81;7397656;19;20427;-40
2023/11/05 02:06:01;;;;;;;23.00;9.90;;;;;;;6.52;100.00;97574.56;7375698;19;20415;-40
2023/11/05 02:08:30;;;;;;;5.03;1.83;;;;;;;6.51;100.00;97574.53;7396333;19;20942;-40
2023/11/05 02:11:00;;;;;;;3.47;2.03;;;;;;;6.56;100.00;97576.28;7374738;19;20425;-41
2023/11/05 02:13:44;;;;;;;4.57;2.27;;;;;;;6.56;100.00;97581.41;7391623;19;20411;-40
2023/11/05 02:16:17;;;;;;;5.30;2.40;;;;;;;6.55;100.00;97589.06;7377047;19;20513;-39
2023/11/05 02:18:47;;;;;;;6.47;1.80;;;;;;;6.55;100.00;97589.94;7397144;19;20422;-39
2023/11/05 02:21:20;;;;;;;4.17;2.50;;;;;;;6.62;100.00;97596.81;7375605;19;20483;-39
2023/11/05 02:23:52;;;;;;;3.00;1.57;;;;;;;6.56;100.00;97589.09;7397686;19;20404;-39
2023/11/05 02:26:22;;;;;;;5.87;2.50;;;;;;;6.62;100.00;97599.38;7376712;19;20432;-40
2023/11/05 02:28:51;;;;;;;4.33;2.27;;;;;;;6.63;100.00;97602.81;7396516;19;20972;-39
2023/11/05 02:31:21;;;;;;;2.00;1.30;;;;;;;6.63;100.00;97600.25;7374565;19;20547;-40
2023/11/05 02:33:51;;;;;;;2.77;1.50;;;;;;;6.60;100.00;97603.63;7400190;19;20407;-39
2023/11/05 02:36:22;;;;;;;3.83;1.70;;;;;;;6.66;100.00;97601.97;7375525;19;20429;-41
2023/11/05 02:38:54;;;;;;;4.70;1.90;;;;;;;6.71;100.00;97598.59;7396605;19;20415;-40
2023/11/05 02:41:23;;;;;;;5.13;2.17;;;;;;;6.76;100.00;97601.16;7375099;19;20990;-41
2023/11/05 02:43:53;;;;;;;5.13;2.20;;;;;;;6.73;100.00;97599.44;7399782;19;20414;-40
2023/11/05 02:46:23;;;;;;;3.40;1.83;;;;;;;6.70;100.00;97599.44;7376337;19;21090;-40
2023/11/05 02:48:53;;;;;;;3.50;1.93;;;;;;;6.70;100.00;97596.00;7397112;19;20553;-39
2023/11/05 02:51:23;;;;;;;3.90;2.07;;;;;;;6.77;100.00;97599.47;7373919;19;20451;-40
2023/11/05 02:53:55;;;;;;;5.07;1.60;;;;;;;6.74;100.00;97606.31;7397187;19;20408;-39
2023/11/05 02:56:25;;;;;;;2.47;1.50;;;;;;;6.72;100.00;97602.03;7375799;19;20523;-39
2023/11/05 02:58:54;;;;;;;2.60;1.57;;;;;;;6.73;100.00;97596.03;7396581;19;20471;-40
2023/11/05 03:01:27;;;;;;;3.90;1.70;;;;;;;6.73;100.00;97604.56;7374519;19;20526;-39
2023/11/05 03:03:57;;;;;;;3.27;2.20;;;;;;;6.70;100.00;97599.44;7399255;19;20414;-42
2023/11/05 03:06:26;;;;;;;4.60;1.90;;;;;;;6.69;100.00;97601.97;7374061;19;20946;-40
2023/11/05 03:08:58;;;;;;;5.00;2.03;;;;;;;6.71;100.00;97595.16;7398795;19;20403;-39
2023/11/05 03:11:28;;;;;;;3.23;1.90;;;;;;;6.73;100.00;97602.00;7372107;19;20530;-40
2023/11/05 03:13:58;;;;;;;4.43;1.60;;;;;;;6.66;100.00;97599.41;7395812;19;20399;-41
2023/11/05 03:16:27;;;;;;;2.07;1.60;;;;;;;6.72;100.00;97595.16;7373218;19;20435;-40
2023/11/05 03:18:57;;;;;;;4.13;1.90;;;;;;;6.72;100.00;97602.03;7395735;19;20403;-40
2023/11/05 03:21:28;;;;;;;3.80;2.23;;;;;;;6.69;100.00;97601.97;7370713;19;20521;-40
2023/11/05 03:24:01;;;;;;;3.53;1.70;;;;;;;6.68;100.00;97605.41;7396669;19;20475;-40
2023/11/05 03:26:31;;;;;;;4.50;1.60;;;;;;;6.65;100.00;97595.16;7373920;19;21257;-40
2023/11/05 03:29:00;;;;;;;3.90;1.70;;;;;;;6.65;100.00;97610.50;7395557;19;20411;-39
2023/11/05 03:31:31;;;;;;;5.37;1.90;;;;;;;6.60;100.00;97606.22;7373440;19;20458;-39
2023/11/05 03:34:00;;;;;;;2.30;1.40;;;;;;;6.59;100.00;97612.19;7398021;19;20403;-39
2023/11/05 03:36:30;;;;;;;2.77;1.90;;;;;;;6.59;100.00;97606.19;7373425;19;20431;-39
2023/11/05 03:39:03;;;;;;;3.93;2.00;;;;;;;6.70;100.00;97607.13;7395233;19;20399;-40
2023/11/05 03:41:32;;;;;;;5.43;2.10;;;;;;;6.71;100.00;97606.28;7371994;19;20451;-39
2023/11/05 03:44:02;;;;;;;4.97;1.93;;;;;;;6.69;100.00;97604.53;7395902;19;20424;-40
2023/11/05 03:46:32;;;;;;;3.77;2.27;;;;;;;6.69;100.00;97594.28;7372649;19;21042;-39
2023/11/05 03:49:01;;;;;;;4.20;2.00;;;;;;;6.68;100.00;97602.84;7394882;19;20966;-41
2023/11/05 03:51:31;;;;;;;6.23;1.97;;;;;;;6.71;100.00;97605.41;7371580;19;20451;-39
2023/11/05 03:54:04;;;;;;;3.70;2.13;;;;;;;6.68;100.00;97601.13;7395555;19;20411;-40
2023/11/05 03:56:33;;;;;;;2.90;1.40;;;;;;;6.74;100.00;97602.88;7372908;19;20449;-39
2023/11/05 03:59:03;;;;;;;3.03;1.80;;;;;;;6.77;100.00;97596.91;7396942;19;20410;-40
2023/11/05 04:01:33;;;;;;;4.00;2.37;;;;;;;6.80;100.00;97599.47;7369261;19;20895;-40
2023/11/05 04:04:02;;;;;;;5.13;2.37;;;;;;;6.81;100.00;97596.94;7395020;19;20525;-40
2023/11/05 04:06:32;;;;;;;3.20;1.70;;;;;;;6.88;100.00;97600.41;7372904;19;20443;-40
2023/11/05 04:09:05;;;;;;;3.73;1.50;;;;;;;6.85;100.00;97596.13;7394155;19;20840;-40
2023/11/05 04:11:34;;;;;;;2.60;1.73;;;;;;;6.87;100.00;97594.41;7370428;19;20476;-38
2023/11/05 04:14:04;;;;;;;3.23;1.60;;;;;;;6.89;100.00;97599.56;7395164;19;20470;-39
2023/11/05 04:16:34;;;;;;;3.60;1.53;;;;;;;6.85;100.00;97603.81;7372203;19;20987;-40
2023/11/05 04:19:03;;;;;;;4.30;2.17;;;;;;;6.84;100.00;97602.09;7394573;19;20497;-41
2023/11/05 04:21:33;;;;;;;3.43;1.80;;;;;;;6.86;100.00;97610.66;7370488;19;20451;-40
2023/11/05 04:24:06;;;;;;;4.57;1.57;;;;;;;6.91;100.00;97609.81;7394759;19;20506;-40
2023/11/05 04:26:35;;;;;;;4.73;2.07;;;;;;;6.96;100.00;97610.69;7372194;19;20427;-42
2023/11/05 04:29:05;;;;;;;2.50;1.40;;;;;;;6.94;100.00;97610.69;7394075;19;20838;-39
2023/11/05 04:31:34;;;;;;;2.83;1.50;;;;;;;6.91;100.00;97609.81;7370089;19;20542;-40
2023/11/05 04:34:04;;;;;;;2.93;1.60;;;;;;;6.88;100.00;97601.25;7394680;19;20471;-39
2023/11/05 04:36:40;;;;;;;4.60;2.70;;;;;;;6.87;100.00;97596.13;7371832;19;20434;-40
2023/11/05 04:39:13;;;;;;;4.80;1.80;;;;;;;6.91;100.00;97604.69;7394421;19;20407;-40
2023/11/05 04:41:42;;;;;;;3.47;1.53;;;;;;;6.92;100.00;97603.84;7371181;19;20471;-40
2023/11/05 04:44:12;;;;;;;6.37;1.80;;;;;;;6.93;100.00;97605.56;7396417;19;20430;-40
2023/11/05 04:46:42;;;;;;;2.90;1.60;;;;;;;6.91;100.00;97597.84;7372098;19;20438;-40
2023/11/05 04:49:11;;;;;;;3.80;2.20;;;;;;;6.89;100.00;97604.69;7393822;19;20412;-40
2023/11/05 04:51:43;;;;;;;5.20;1.90;;;;;;;6.91;100.00;97602.13;7369642;19;20459;-40
2023/11/05 04:54:16;;;;;;;3.10;1.60;;;;;;;6.91;100.00;97602.97;7394314;19;20408;-40
2023/11/05 04:56:45;;;;;;;4.03;1.53;;;;;;;6.89;100.00;97605.53;7371033;19;20455;-39
2023/11/05 04:59:15;;;;;;;3.13;1.53;;;;;;;6.91;100.00;97615.78;7393932;19;20425;-40
2023/11/05 05:01:44;;;;;;;3.50;1.93;;;;;;;6.91;100.00;97607.25;7370583;19;20466;-40
2023/11/05 05:04:14;;;;;;;4.40;2.13;;;;;;;6.98;100.00;97598.75;7393709;19;21002;-40
2023/11/05 05:06:44;;;;;;;8.83;1.70;;;;;;;6.97;100.00;97599.59;7370818;19;20450;-41
2023/11/05 05:09:17;;;;;;;2.57;1.40;;;;;;;6.93;100.00;97603.88;7395359;19;20494;-39
2023/11/05 05:11:46;;;;;;;4.73;2.07;;;;;;;6.93;100.00;97605.56;7366830;19;20462;-39
2023/11/05 05:14:16;;;;;;;4.50;1.80;;;;;;;6.95;100.00;97603.84;7393641;19;20411;-40
2023/11/05 05:16:45;;;;;;;2.83;1.90;;;;;;;6.96;100.00;97597.88;7371199;19;20446;-41
2023/11/05 05:19:15;;;;;;;2.87;1.70;;;;;;;6.95;100.00;97601.28;7395089;19;20417;-40
2023/11/05 05:21:45;;;;;;;5.67;2.57;;;;;;;6.99;100.00;97597.91;7369897;19;20467;-41
2023/11/05 05:24:18;;;;;;;5.00;2.40;;;;;;;7.04;100.00;97601.34;7396156;19;20479;-40
2023/11/05 05:26:47;;;;;;;3.50;1.50;;;;;;;7.10;100.00;97597.94;7370600;19;20958;-39
2023/11/05 05:29:17;;;;;;;4.50;2.13;;;;;;;7.10;100.00;97600.50;7394461;19;20424;-41
2023/11/05 05:31:47;;;;;;;4.20;1.57;;;;;;;7.10;100.00;97592.81;7369118;19;20798;-40
2023/11/05 05:34:16;;;;;;;3.13;1.67;;;;;;;7.13;100.00;97596.25;7394681;19;20745;-40
2023/11/05 05:36:46;;;;;;;1.90;1.30;;;;;;;7.11;100.00;97597.97;7369745;19;20808;-40
2023/11/05 05:39:18;;;;;;;2.93;1.83;;;;;;;7.11;100.00;97595.41;7391449;19;20411;-41
2023/11/05 05:41:47;;;;;;;2.93;1.33;;;;;;;7.12;100.00;97602.25;7369353;19;20455;-40
2023/11/05 05:44:17;;;;;;;3.77;2.00;;;;;;;7.19;100.00;97598.00;7393044;19;20466;-41
2023/11/05 05:46:51;;;;;;;3.90;1.47;;;;;;;7.16;100.00;97592.84;7369915;19;20427;-39
2023/11/05 05:49:21;;;;;;;2.57;1.40;;;;;;;7.20;100.00;97594.59;7394371;19;20420;-40
2023/11/05 05:51:50;;;;;;;5.40;1.83;;;;;;;7.24;100.00;97585.22;7368523;19;20573;-40
2023/11/05 05:54:22;;;;;;;3.60;1.67;;;;;;;7.23;100.00;97584.34;7392718;19;20419;-41
2023/11/05 05:56:52;;;;;;;4.20;1.90;;;;;;;7.21;100.00;97585.19;7369607;19;20498;-40
2023/11/05 05:59:21;;;;;;;3.53;1.80;;;;;;;7.25;100.00;97584.34;7392170;19;20416;-41
2023/11/05 06:01:51;;;;;;;3.23;1.80;;;;;;;7.20;100.00;97588.59;7368783;19;20472;-40
2023/11/05 06:04:21;;;;;;;11.13;4.23;;;;;;;7.24;100.00;97580.91;7394711;19;20414;-40
2023/11/05 06:06:50;;;;;;;8.70;1.93;;;;;;;7.25;100.00;97586.91;7369559;19;20526;-38
2023/11/05 06:09:24;;;;;;;4.00;1.60;;;;;;;7.26;100.00;97574.09;7391749;19;20411;-41
2023/11/05 06:11:53;;;;;;;6.00;1.67;;;;;;;7.29;100.00;97570.69;7368258;19;20455;-40
2023/11/05 06:14:23;;;;;;;4.23;1.50;;;;;;;7.29;100.00;97570.69;7392893;19;20408;-40
2023/11/05 06:17:08;;;;;;;2.57;1.37;;;;;;;7.30;100.00;97560.44;7371687;19;20439;-39
2023/11/05 06:19:38;;;;;;;5.37;2.00;;;;;;;7.28;100.00;97556.16;7391052;19;20487;-40
2023/11/05 06:22:08;;;;;;;4.83;2.00;;;;;;;7.30;100.00;97567.28;7371288;19;20450;-40
2023/11/05 06:24:41;;;;;;;4.23;1.97;;;;;;;7.31;100.00;97561.28;7395617;19;20407;-40
2023/11/05 06:27:11;;;;;;;3.43;1.67;;;;;;;7.31;100.00;97561.28;7377907;19;21060;-42
2023/11/05 06:29:40;;;;;;;3.43;1.60;;;;;;;7.34;100.00;97561.28;7392277;19;20399;-40
2023/11/05 06:32:10;;;;;;;7.03;2.00;;;;;;;7.31;100.00;97563.88;7398528;19;20476;-40
2023/11/05 06:34:40;;;;;;;2.90;1.57;;;;;;;7.27;100.00;97551.88;7400556;19;20475;-41
2023/11/05 06:37:09;;;;;;;4.63;1.80;;;;;;;7.22;100.00;97558.72;7378165;19;20996;-39
2023/11/05 06:39:42;;;;;;;4.80;1.40;;;;;;;7.21;100.00;97564.66;7397283;19;20400;-41
2023/11/05 06:42:12;;;;;;;1.80;1.17;;;;;;;7.22;100.00;97562.13;7375571;19;20449;-40
2023/11/05 06:44:41;;;;;;;3.60;1.50;;;;;;;7.28;100.00;97566.44;7381742;19;20471;-41
2023/11/05 06:47:11;;;;;;;6.20;1.90;;;;;;;7.29;100.00;97568.13;7398176;19;20482;-40
2023/11/05 06:49:41;;;;;;;6.30;2.17;;;;;;;7.30;100.00;97564.72;7387015;19;21130;-40
2023/11/05 06:52:10;;;;;;;3.90;2.10;;;;;;;7.32;100.00;97568.13;7396574;19;20431;-41
2023/11/05 06:54:43;;;;;;;3.30;1.60;;;;;;;7.27;100.00;97567.25;7389932;19;20414;-36
2023/11/05 06:57:12;;;;;;;4.77;1.70;;;;;;;7.33;100.00;97563.88;7400035;19;20430;-40
2023/11/05 06:59:42;;;;;;;3.93;1.90;;;;;;;7.32;100.00;97562.16;7373764;19;20411;-41
2023/11/05 07:02:12;;;;;;;5.33;2.00;;;;;;;7.27;100.00;97564.69;7395382;19;20990;-40
2023/11/05 07:04:42;;;;;;;5.43;2.20;;;;;;;7.82;100.00;97558.00;7377023;19;20409;-39
2023/11/05 07:07:12;;;;;;;12.70;5.57;;;;;;;7.91;100.00;97568.31;7395312;19;20455;-39
2023/11/05 07:09:44;;;;;;;51.30;22.60;;;;;;;7.84;100.00;97546.03;7378043;19;20424;-39
2023/11/05 07:12:15;;;;;;;30.93;17.03;;;;;;;7.86;100.00;97539.19;7390349;19;20427;-39
2023/11/05 07:14:44;;;;;;;9.30;2.77;;;;;;;7.72;100.00;97525.47;7366395;19;20405;-39
2023/11/05 07:17:14;;;;;;;3.47;1.43;;;;;;;7.67;100.00;97518.66;7385458;19;20935;-40
2023/11/05 07:19:44;;;;;;;6.10;2.00;;;;;;;7.93;100.00;97511.81;7365371;19;20407;-45
2023/11/05 07:22:14;;;;;;;13.43;6.30;;;;;;;7.85;100.00;97511.81;7386814;19;20459;-40
2023/11/05 07:24:46;;;;;;;15.40;7.70;;;;;;;7.86;100.00;97490.44;7366956;19;20826;-40
2023/11/05 07:27:16;;;;;;;12.13;4.47;;;;;;;7.89;100.00;97482.72;7386542;19;20415;-40
2023/11/05 07:29:46;;;;;;;3.83;1.30;;;;;;;7.59;100.00;97474.13;7363397;19;20970;-39
2023/11/05 07:32:16;;;;;;;4.37;1.70;;;;;;;7.62;100.00;97492.13;7385352;19;20467;-41
2023/11/05 07:34:47;;;;;;;3.27;1.60;;;;;;;7.55;100.00;97490.41;7363539;19;20963;-41
2023/11/05 07:37:17;;;;;;;6.53;1.80;;;;;;;7.61;100.00;97500.66;7385243;19;20491;-41
2023/11/05 07:39:49;;;;;;;2.30;1.53;;;;;;;7.68;100.00;97501.50;7364421;19;20934;-40
2023/11/05 07:42:19;;;;;;;4.53;1.60;;;;;;;7.70;100.00;97502.41;7388542;19;20517;-40
2023/11/05 07:44:48;;;;;;;2.37;1.30;;;;;;;7.61;100.00;97508.38;7366447;19;20406;-40
2023/11/05 07:47:18;;;;;;;6.53;1.40;;;;;;;7.60;100.00;97519.50;7386702;19;20935;-40
2023/11/05 07:49:48;;;;;;;4.33;1.57;;;;;;;7.57;100.00;97516.91;7365809;19;20408;-41
2023/11/05 07:52:18;;;;;;;3.10;1.70;;;;;;;7.60;100.00;97516.94;7385337;19;21019;-41
2023/11/05 07:54:50;;;;;;;5.53;1.23;;;;;;;7.67;100.00;97530.59;7363863;19;20411;-40
2023/11/05 07:57:19;;;;;;;2.77;1.30;;;;;;;7.68;100.00;97534.88;7386005;19;20771;-39
2023/11/05 07:59:49;;;;;;;9.30;3.10;;;;;;;7.68;100.00;97533.19;7363894;19;20774;-39
2023/11/05 08:02:19;;;;;;;5.90;1.60;;;;;;;7.70;100.00;97539.16;7385632;19;20438;-40
2023/11/05 08:04:48;;;;;;;3.93;1.67;;;;;;;7.75;100.00;97535.75;7366048;19;20410;-39
2023/11/05 08:07:18;;;;;;;9.77;1.27;;;;;;;7.76;100.00;97538.34;7387212;19;20463;-40
2023/11/05 08:09:51;;;;;;;2.97;1.10;;;;;;;7.78;100.00;97535.75;7361476;19;20770;-38
2023/11/05 08:12:21;;;;;;;4.23;1.50;;;;;;;7.82;100.00;97532.34;7385380;19;20440;-42
2023/11/05 08:14:51;;;;;;;4.07;1.60;;;;;;;7.90;100.00;97530.63;7363506;19;20490;-39
2023/11/05 08:17:21;;;;;;;11.47;1.90;;;;;;;7.94;100.00;97532.34;7386903;19;20418;-42
2023/11/05 08:19:50;;;;;;;4.50;1.70;;;;;;;7.97;100.00;97534.06;7363396;19;20839;-40
2023/11/05 08:22:20;;;;;;;5.50;2.17;;;;;;;8.03;100.00;97540.91;7383957;19;20435;-39
2023/11/05 08:24:53;;;;;;;4.80;1.50;;;;;;;8.04;100.00;97532.34;7361402;19;20408;-39
2023/11/05 08:27:22;;;;;;;5.83;2.20;;;;;;;8.06;100.00;97531.50;7384289;19;20407;-40
2023/11/05 08:29:52;;;;;;;4.90;1.70;;;;;;;8.09;100.00;97526.38;7362321;19;20487;-40
2023/11/05 08:32:22;;;;;;;4.10;2.07;;;;;;;8.11;100.00;97521.25;7383376;19;20432;-42
2023/11/05 08:34:52;;;;;;;6.13;2.17;;;;;;;8.15;100.00;97525.50;7362822;19;20397;-40
2023/11/05 08:37:21;;;;;;;4.70;1.77;;;;;;;8.15;100.00;97515.22;7384081;19;20420;-39
2023/11/05 08:39:54;;;;;;;4.47;1.60;;;;;;;8.13;100.00;97510.94;7364519;19;20399;-39
2023/11/05 08:42:24;;;;;;;4.97;1.80;;;;;;;8.24;100.00;97507.53;7384959;19;20427;-40
2023/11/05 08:44:53;;;;;;;4.83;1.50;;;;;;;8.22;100.00;97495.56;7362187;19;20419;-39
2023/11/05 08:47:23;;;;;;;4.70;1.77;;;;;;;8.15;100.00;97497.25;7381212;19;20411;-40
2023/11/05 08:49:53;;;;;;;4.50;2.07;;;;;;;8.19;100.00;97491.28;7363205;19;20416;-43
2023/11/05 08:52:23;;;;;;;4.20;1.50;;;;;;;8.19;100.00;97483.56;7383730;19;20498;-40
2023/11/05 08:54:55;;;;;;;5.20;1.97;;;;;;;8.26;100.00;97481.00;7362571;19;20427;-40
2023/11/05 08:57:25;;;;;;;3.40;1.50;;;;;;;8.23;100.00;97461.28;7385678;19;20403;-41
2023/11/05 08:59:54;;;;;;;4.77;2.00;;;;;;;8.23;100.00;97462.16;7362745;19;20411;-40
2023/11/05 09:02:26;;;;;;;5.37;1.30;;;;;;;8.19;100.00;97455.31;7385208;19;22050;-40
2023/11/05 09:04:56;;;;;;;2.53;1.30;;;;;;;8.26;100.00;97445.03;7364076;19;20452;-40
2023/11/05 09:07:25;;;;;;;5.37;1.50;;;;;;;8.35;100.00;97425.31;7384989;19;20407;-40
2023/11/05 09:09:58;;;;;;;3.40;1.70;;;;;;;8.28;100.00;97420.19;7360590;19;21314;-40
2023/11/05 09:12:29;;;;;;;6.33;2.47;;;;;;;8.29;100.00;97409.06;7384726;19;20432;-41
2023/11/05 09:15:00;;;;;;;4.20;1.60;;;;;;;8.42;100.00;97399.59;7363912;19;20410;-40
2023/11/05 09:17:30;;;;;;;5.27;1.80;;;;;;;8.50;100.00;97388.44;7385192;19;20403;-42
2023/11/05 09:20:00;;;;;;;6.40;1.80;;;;;;;8.49;100.00;97375.59;7362554;19;20424;-41
2023/11/05 09:22:29;;;;;;;5.27;1.80;;;;;;;8.44;100.00;97370.47;7384752;19;21278;-40
2023/11/05 09:25:04;;;;;;;3.50;1.60;;;;;;;8.50;100.00;97365.31;7363039;19;20407;-41
2023/11/05 09:27:34;;;;;;;3.20;1.53;;;;;;;8.55;100.00;97385.03;7386336;19;20403;-40
2023/11/05 09:30:03;;;;;;;4.33;1.73;;;;;;;8.70;100.00;97381.53;7361592;19;20426;-41
2023/11/05 09:32:33;;;;;;;7.90;1.93;;;;;;;8.69;100.00;97378.13;7385405;19;20435;-40
2023/11/05 09:35:03;;;;;;;3.53;1.77;;;;;;;8.70;100.00;97382.41;7363725;19;20399;-41
2023/11/05 09:37:33;;;;;;;3.43;1.77;;;;;;;8.63;100.00;97371.28;7385486;19;21032;-42
2023/11/05 09:40:06;;;;;;;10.03;3.70;;;;;;;8.68;100.00;97386.69;7350410;19;21362;-42
2023/11/05 09:42:41;;;;;;;2.97;1.90;;;;;;;8.73;100.00;97381.53;7366828;19;20536;-43
2023/11/05 09:45:14;;;;;;;3.97;1.30;;;;;;;8.55;100.00;97382.47;7348553;19;20431;-40
2023/11/05 09:47:44;;;;;;;3.80;1.77;;;;;;;8.62;100.00;97391.88;7389434;19;20406;-41
2023/11/05 09:50:14;;;;;;;12.10;2.60;;;;;;;8.77;100.00;97401.22;7371527;19;20411;-40
2023/11/05 09:52:43;;;;;;;3.80;2.03;;;;;;;8.75;100.00;97408.94;7391075;19;20510;-41
2023/11/05 09:55:16;;;;;;;5.07;2.30;;;;;;;8.77;100.00;97416.66;7369558;19;20418;-42
2023/11/05 09:57:45;;;;;;;8.70;2.30;;;;;;;8.83;100.00;97426.03;7390848;19;20399;-43
2023/11/05 10:00:16;;;;;;;2.70;1.80;;;;;;;8.88;100.00;97434.59;7378724;19;20409;-44
2023/11/05 10:02:55;;;;;;;8.27;3.40;;;;;;;8.90;100.00;97438.88;7398071;19;20515;-45
2023/11/05 10:05:26;;;;;;;6.23;2.97;;;;;;;8.90;100.00;97446.56;7377458;19;21186;-45
2023/11/05 10:07:56;;;;;;;4.17;2.40;;;;;;;8.83;100.00;97460.31;7397579;19;20411;-42
2023/11/05 10:10:29;;;;;;;4.97;1.77;;;;;;;8.84;100.00;97458.59;7375196;19;20428;-44
2023/11/05 10:12:58;;;;;;;4.67;2.10;;;;;;;8.92;100.00;97459.41;7398353;19;20855;-42
2023/11/05 10:15:28;;;;;;;2.97;1.50;;;;;;;8.93;100.00;97458.56;7375800;19;21010;-44
2023/11/05 10:17:58;;;;;;;6.10;2.10;;;;;;;8.95;100.00;97458.53;7396973;19;20415;-42
2023/11/05 10:20:30;;;;;;;5.00;2.10;;;;;;;8.94;100.00;97452.56;7378377;19;20435;-47
2023/11/05 10:23:03;;;;;;;2.70;1.50;;;;;;;8.90;100.00;97453.41;7397888;19;20456;-43
2023/11/05 10:25:36;;;;;;;2.83;1.60;;;;;;;8.90;100.00;97459.44;7375293;19;20443;-43
2023/11/05 10:28:07;;;;;;;3.80;1.60;;;;;;;8.90;100.00;97458.56;7397514;19;20431;-46
2023/11/05 10:30:36;;;;;;;4.63;1.97;;;;;;;9.03;100.00;97460.22;7376599;19;20417;-45
2023/11/05 10:33:08;;;;;;;4.67;2.00;;;;;;;9.20;100.00;97474.72;7397659;19;20443;-45
2023/11/05 10:35:37;;;;;;;3.40;1.70;;;;;;;9.40;100.00;97478.91;7375191;19;20432;-46
2023/11/05 10:38:19;;;;;;;6.97;2.03;;;;;;;9.40;100.00;97464.31;7396924;19;20407;-43
2023/11/05 10:40:52;;;;;;;3.03;1.70;;;;;;;9.21;100.00;97453.28;7376185;19;20415;-41
2023/11/05 10:43:25;;;;;;;3.83;2.03;;;;;;;9.22;100.00;97431.81;7398502;19;20414;-44
2023/11/05 10:45:55;;;;;;;4.90;1.70;;;;;;;9.21;100.00;97437.84;7375735;19;20419;-44
2023/11/05 10:48:25;;;;;;;4.57;1.60;;;;;;;9.16;100.00;97426.72;7399913;19;20443;-42
2023/11/05 10:50:56;;;;;;;2.90;1.53;;;;;;;9.17;100.00;97425.84;7375254;19;20443;-41
2023/11/05 10:53:26;;;;;;;4.97;1.80;;;;;;;9.19;100.00;97416.44;7400642;19;20416;-42
2023/11/05 10:55:58;;;;;;;8.77;4.43;;;;;;;9.61;100.00;97429.00;7374985;19;20412;-44
2023/11/05 10:58:41;;;;;;;78.67;35.70;;;;;;;10.04;100.00;97425.19;7396924;19;20404;-44
2023/11/05 11:01:17;;;;;;;5.63;3.20;;;;;;;9.65;100.00;97388.66;7373985;19;20974;-41
2023/11/05 11:03:47;;;;;;;67.47;32.93;;;;;;;10.34;100.00;97371.66;7396460;19;20408;-43
2023/11/05 11:06:17;;;;;;;4.77;1.80;;;;;;;9.78;100.00;97305.28;7375733;19;20426;-43
2023/11/05 11:08:59;;;;;;;6.70;2.07;;;;;;;9.44;100.00;97260.13;7394833;19;20416;-44
2023/11/05 11:11:32;;;;;;;31.30;13.07;;;;;;;9.54;100.00;97252.34;7372722;19;20818;-43
2023/11/05 11:14:02;;;;;;;5.10;1.93;;;;;;;9.75;100.00;97238.41;7396632;19;20513;-43
2023/11/05 11:16:33;;;;;;;17.43;7.70;;;;;;;9.74;100.00;97216.06;7374022;19;20423;-42
2023/11/05 11:19:09;;;;;;;2.63;1.70;;;;;;;9.78;100.00;97175.69;7396405;19;20419;-43
2023/11/05 11:21:47;;;;;;;15.23;7.53;;;;;;;9.69;100.00;97174.13;7373271;19;20455;-42
2023/11/05 11:24:33;;;;;;;6.63;2.40;;;;;;;9.51;100.00;97176.03;7390681;19;20410;-40
2023/11/05 11:27:07;;;;;;;9.30;3.80;;;;;;;9.67;100.00;97188.69;7367645;19;20539;-41
2023/11/05 11:29:37;;;;;;;5.53;1.50;;;;;;;9.58;100.00;97190.53;7381261;19;20407;-41
2023/11/05 11:32:09;;;;;;;10.97;5.17;;;;;;;9.99;100.00;97196.03;7366981;19;20439;-42
2023/11/05 11:34:40;;;;;;;3.00;1.17;;;;;;;9.95;100.00;97172.94;7389045;19;20399;-44
2023/11/05 11:37:10;;;;;;;3.13;1.20;;;;;;;9.62;100.00;97168.16;7367770;19;20439;-42
2023/11/05 11:39:40;;;;;;;3.50;1.57;;;;;;;9.44;100.00;97182.94;7387501;19;20816;-41
2023/11/05 11:42:14;;;;;;;2.60;1.67;;;;;;;9.35;100.00;97213.94;7387505;19;20967;-41
2023/11/05 11:44:44;;;;;;;4.00;1.67;;;;;;;9.31;100.00;97253.41;7366781;19;20407;-44
2023/11/05 11:47:14;;;;;;;4.63;2.33;;;;;;;9.23;100.00;97297.19;7386471;19;20531;-42